• Join FlightAware (Why Join?)
  • Login
  • US Flag 
Trick or treat! (Boo!!) 
09:06AM EDT


 

Airport Tracker/Info


-or-


 

Live Flight TrackerFlight Track Log ✈ N830QS ✈ 30-Jun-2014 ✈ KSHV - KLBF

Flight Track Log - Related Links

Times and Time Zones

All times are in EDT time to prevent confusion due to time zone crossing. See the N830QS flight status page for this flight to view local times or setup timezone preferences in your user account.

Time Position Orientation Groundspeed Altitude Reporting Facility
EDT Latitude Longitude Course Direction KTS MPH feet Rate Location/Type
11:05AM 32.4347 -93.8183 160° South 161 185 900  Level Fort Worth Center
11:06AM 32.3919 -93.7997 160° South 182 209 4,300 3,000 Climbing Fort Worth Center
11:07AM 32.3947 -93.8392 275° West 203 234 6,100 2,760 Climbing Fort Worth Center
11:08AM 32.4517 -93.8836 327° Northwest 242 278 9,100 2,580 Climbing Fort Worth Center
11:09AM 32.5231 -93.9392 327° Northwest 287 330 11,500 2,160 Climbing Fort Worth Center
11:10AM 32.5992 -93.9969 327° Northwest 322 371 13,600 2,340 Climbing Fort Worth Center
11:11AM 32.6833 -94.0622 327° Northwest 331 381 16,400 2,340 Climbing Fort Worth Center
11:12AM 32.7519 -94.1156 327° Northwest 335 386 18,500 2,040 Climbing Fort Worth Center
11:13AM 32.8308 -94.1767 327° Northwest 336 387 20,700 1,980 Climbing Fort Worth Center
11:14AM 32.9131 -94.2414 327° Northwest 350 403 22,700 2,100 Climbing Fort Worth Center
11:15AM 33.0125 -94.3186 327° Northwest 352 405 25,100 2,040 Climbing Fort Worth Center
11:16AM 33.0964 -94.3836 327° Northwest 354 407 27,000 1,740 Climbing Fort Worth Center
11:17AM 33.1806 -94.4494 327° Northwest 357 411 28,700 1,500 Climbing Fort Worth Center
11:18AM 33.2656 -94.5164 327° Northwest 359 413 30,200 1,440 Climbing Fort Worth Center
11:19AM 33.3522 -94.5839 327° Northwest 371 427 31,700 1,320 Climbing Fort Worth Center
11:20AM 33.4392 -94.6519 327° Northwest 372 428 33,000 1,200 Climbing Fort Worth Center
11:21AM 33.5278 -94.7206 327° Northwest 376 433 34,300 1,320 Climbing Fort Worth Center
11:22AM 33.6317 -94.8039 326° Northwest 373 429 35,800 1,260 Climbing Fort Worth Center
11:23AM 33.7219 -94.8739 327° Northwest 383 441 37,000 1,020 Climbing Fort Worth Center
11:24AM 33.8128 -94.9450 327° Northwest 385 443 38,000 480 Climbing Fort Worth Center
11:25AM 33.9011 -95.0167 326° Northwest 384 442 38,000  Level Fort Worth Center
11:26AM 33.9978 -95.0928 327° Northwest 415 478 38,100 600 Climbing Fort Worth Center
11:27AM 34.0925 -95.1697 326° Northwest 414 476 39,300 900 Climbing Fort Worth Center
11:28AM 34.2003 -95.2558 327° Northwest 395 455 40,000 300 Climbing Fort Worth Center
11:29AM 34.2931 -95.3306 326° Northwest 400 460 40,000  Level Fort Worth Center
11:30AM 34.3892 -95.4075 327° Northwest 415 478 40,000  Level Fort Worth Center
11:32AM 34.4839 -95.4856 326° Northwest 417 480 40,000  Level Fort Worth Center
11:33AM 34.5886 -95.5683 327° Northwest 411 473 40,000  Level Fort Worth Center
11:34AM 34.6825 -95.6436 327° Northwest 411 473 40,000  Level Fort Worth Center
11:35AM 34.7756 -95.7206 326° Northwest 408 470 40,000  Level Fort Worth Center
11:36AM 34.8714 -95.7944 328° Northwest 408 470 40,000  Level Fort Worth Center
11:37AM 34.9850 -95.8758 330° Northwest 407 468 40,000  Level Fort Worth Center
11:38AM 35.0842 -95.9458 330° Northwest 400 460 40,000  Level Fort Worth Center
11:39AM 35.1822 -96.0158 330° Northwest 411 473 40,000  Level Fort Worth Center
11:40AM 35.2794 -96.0864 329° Northwest 410 472 40,000  Level Fort Worth Center
11:41AM 35.3789 -96.1547 331° Northwest 410 472 40,000  Level Fort Worth Center
11:42AM 35.4950 -96.2397 329° Northwest 410 472 40,000  Level Fort Worth Center
11:43AM 35.5914 -96.3103 329° Northwest 407 468 40,000  Level Fort Worth Center
11:44AM 35.6867 -96.3789 330° Northwest 408 470 40,000  Level Kansas City Center
11:45AM 35.7844 -96.4506 329° Northwest 408 470 40,000  Level Kansas City Center
11:46AM 35.8836 -96.5217 330° Northwest 412 474 40,000  Level Kansas City Center
11:47AM 36.0017 -96.6086 329° Northwest 412 474 40,000  Level Kansas City Center
11:48AM 36.0875 -96.6711 330° Northwest 411 473 40,000  Level Kansas City Center
11:49AM 36.1944 -96.7497 329° Northwest 407 468 40,000  Level Kansas City Center
11:50AM 36.2903 -96.8214 329° Northwest 407 468 40,000  Level Kansas City Center
11:51AM 36.3858 -96.8908 330° Northwest 404 465 40,000  Level Kansas City Center
11:52AM 36.5000 -96.9750 329° Northwest 403 464 40,000  Level Kansas City Center
11:53AM 36.5889 -97.0419 329° Northwest 403 464 40,000  Level Kansas City Center
11:54AM 36.6897 -97.1164 329° Northwest 402 463 40,000  Level Kansas City Center
11:55AM 36.7850 -97.1856 330° Northwest 400 460 40,000  Level Kansas City Center
11:56AM 36.8856 -97.2625 329° Northwest 400 460 40,000  Level Kansas City Center
11:57AM 36.9803 -97.3342 329° Northwest 400 460 40,000  Level Kansas City Center
11:58AM 37.0747 -97.4053 329° Northwest 399 459 40,000  Level Kansas City Center
12:00PM 37.1675 -97.4797 327° Northwest 399 459 40,000  Level Kansas City Center
12:01PM 37.2811 -97.5639 329° Northwest 398 458 40,000  Level Kansas City Center
12:02PM 37.3747 -97.6358 329° Northwest 396 456 40,000  Level Kansas City Center
12:03PM 37.4689 -97.7067 329° Northwest 395 455 40,000  Level Kansas City Center
12:04PM 37.5628 -97.7792 329° Northwest 395 455 40,000  Level Kansas City Center
12:05PM 37.6681 -97.8619 328° Northwest 394 453 40,000  Level Kansas City Center
12:06PM 37.7614 -97.9344 328° Northwest 394 453 40,000  Level Kansas City Center
12:07PM 37.8550 -98.0086 328° Northwest 394 453 40,000  Level Kansas City Center
12:08PM 37.9517 -98.0864 328° Northwest 407 468 40,000  Level Kansas City Center
12:09PM 38.0572 -98.1617 331° Northwest 395 455 40,000  Level Kansas City Center
12:10PM 38.1511 -98.2344 329° Northwest 395 455 40,000  Level Kansas City Center
12:11PM 38.2450 -98.3078 328° Northwest 395 455 40,000  Level Kansas City Center
12:12PM 38.3386 -98.3822 328° Northwest 395 455 40,000  Level Kansas City Center
12:13PM 38.4331 -98.4556 329° Northwest 395 455 40,000  Level Kansas City Center
12:14PM 38.5258 -98.5283 328° Northwest 395 455 40,000  Level Kansas City Center
12:15PM 38.6386 -98.6172 328° Northwest 395 455 40,000  Level Kansas City Center
12:16PM 38.7317 -98.6914 328° Northwest 395 455 40,000  Level Kansas City Center
12:17PM 38.8250 -98.7667 328° Northwest 395 455 40,000  Level Kansas City Center
12:18PM 38.9169 -98.8408 328° Northwest 393 452 40,000  Level Kansas City Center
12:19PM 39.0119 -98.9142 329° Northwest 394 453 40,000  Level Kansas City Center
12:20PM 39.1053 -98.9911 327° Northwest 398 458 40,000 -420 Level Kansas City Center
12:21PM 39.2192 -99.0831 328° Northwest 400 460 39,200 -900 Descending Kansas City Center
12:22PM 39.3147 -99.1611 328° Northwest 404 465 38,200 -1,200 Descending Kansas City Center
12:23PM 39.4106 -99.2383 328° Northwest 404 465 36,800 -1,500 Descending Kansas City Center
12:24PM 39.5103 -99.3225 327° Northwest 411 473 35,200 -1,500 Descending Kansas City Center
12:25PM 39.6086 -99.4019 328° Northwest 411 473 33,700 -1,740 Descending Kansas City Center
12:26PM 39.7042 -99.4797 328° Northwest 410 472 31,700 -2,160 Descending Kansas City Center
12:28PM 39.8303 -99.5861 327° Northwest 392 451 28,900 -2,160 Descending Denver Center
12:29PM 39.9228 -99.6614 328° Northwest 390 449 26,900 -1,980 Descending Denver Center
12:30PM 40.0156 -99.7400 327° Northwest 391 450 24,900 -1,980 Descending Denver Center
12:31PM 40.1086 -99.8172 328° Northwest 393 452 22,900 -2,040 Descending Denver Center
12:32PM 40.2056 -99.8975 328° Northwest 392 451 20,700 -1,980 Descending Denver Center
12:33PM 40.2911 -99.9700 327° Northwest 388 447 18,800 -2,040 Descending Denver Center
12:34PM 40.3881 -100.0517 327° Northwest 377 434 16,500 -2,040 Descending Denver Center
12:35PM 40.4675 -100.1186 327° Northwest 363 418 14,600 -1,860 Descending Denver Center
12:36PM 40.5514 -100.1894 327° Northwest 329 379 12,700 -1,560 Descending Denver Center
12:37PM 40.6206 -100.2494 327° Northwest 317 365 11,400 -1,260 Descending Denver Center
12:38PM 40.6994 -100.3158 327° Northwest 307 353 10,200 -1,500 Descending Denver Center
12:39PM 40.7594 -100.3667 327° Northwest 280 322 8,300 -1,680 Descending Denver Center
12:40PM 40.8256 -100.4253 326° Northwest 262 302 6,800 -1,260 Descending Denver Center
12:41PM 40.8789 -100.4694 328° Northwest 245 282 5,800 -1,020 Descending Denver Center